createdAt,value
2022-12-16T00:00:48.316Z,99292.22
2022-12-16T00:03:15.910Z,99293.97
2022-12-16T00:05:44.646Z,99286.25
2022-12-16T00:08:14.278Z,99289.75
2022-12-16T00:10:54.999Z,99294.13
2022-12-16T00:13:22.766Z,99297.63
2022-12-16T00:15:50.350Z,99297.66
2022-12-16T00:18:20.160Z,99300.25
2022-12-16T00:20:47.737Z,99294.16
2022-12-16T00:23:15.700Z,99290.66
2022-12-16T00:25:43.255Z,99288.06
2022-12-16T00:28:10.891Z,99289.84
2022-12-16T00:30:38.431Z,99289.88
2022-12-16T00:33:06.011Z,99294.22
2022-12-16T00:35:33.649Z,99289.06
2022-12-16T00:38:01.182Z,99285.69
2022-12-16T00:40:28.791Z,99287.50
2022-12-16T00:42:56.866Z,99289.34
2022-12-16T00:45:24.420Z,99295.47
2022-12-16T00:47:52.443Z,99290.41
2022-12-16T00:50:20.487Z,99301.69
2022-12-16T00:52:48.034Z,99303.47
2022-12-16T00:55:15.602Z,99288.84
2022-12-16T00:57:43.206Z,99295.72
2022-12-16T01:00:13.053Z,99293.16
2022-12-16T01:02:41.620Z,99290.63
2022-12-16T01:05:09.390Z,99288.88
2022-12-16T01:07:38.678Z,99287.13
2022-12-16T01:10:06.493Z,99294.91
2022-12-16T01:12:34.504Z,99295.81
2022-12-16T01:15:02.049Z,99293.28
2022-12-16T01:17:29.621Z,99295.03
2022-12-16T01:19:57.749Z,99300.31
2022-12-16T01:22:25.291Z,99302.97
2022-12-16T01:24:53.510Z,99301.31
2022-12-16T01:27:22.940Z,99313.38
2022-12-16T01:29:50.839Z,99305.63
2022-12-16T01:32:19.667Z,99304.81
2022-12-16T01:34:51.044Z,99310.78
2022-12-16T01:37:23.225Z,99321.13
2022-12-16T01:39:50.856Z,99320.22
2022-12-16T01:42:19.330Z,99321.91
2022-12-16T01:44:46.878Z,99315.94
2022-12-16T01:47:14.459Z,99328.84
2022-12-16T01:49:42.373Z,99325.41
2022-12-16T01:52:09.924Z,99330.59
2022-12-16T01:54:37.517Z,99324.59
2022-12-16T01:57:05.041Z,99321.16
2022-12-16T01:59:32.593Z,99328.91
2022-12-16T02:02:00.844Z,99325.50
2022-12-16T02:04:28.749Z,99323.78
2022-12-16T02:07:01.141Z,99319.53
2022-12-16T02:09:28.738Z,99324.69
2022-12-16T02:11:56.270Z,99325.59
2022-12-16T02:14:24.181Z,99331.66
2022-12-16T02:16:51.872Z,99326.47
2022-12-16T02:19:21.245Z,99328.22
2022-12-16T02:21:49.184Z,99335.97
2022-12-16T02:24:16.758Z,99336.84
2022-12-16T02:26:44.652Z,99329.16
2022-12-16T02:29:12.606Z,99327.41
2022-12-16T02:31:42.828Z,99335.16
2022-12-16T02:34:10.379Z,99330.88
2022-12-16T02:36:38.000Z,99323.13
2022-12-16T02:39:05.899Z,99335.22
2022-12-16T02:41:33.418Z,99327.50
2022-12-16T02:44:02.419Z,99334.38
2022-12-16T02:46:30.193Z,99334.47
2022-12-16T02:48:57.708Z,99331.06
2022-12-16T02:51:26.020Z,99335.44
2022-12-16T02:53:53.583Z,99328.59
2022-12-16T02:56:21.119Z,99330.34
2022-12-16T02:58:48.653Z,99342.47
2022-12-16T03:01:16.354Z,99329.56
2022-12-16T03:03:44.506Z,99328.75
2022-12-16T03:06:12.227Z,99339.09
2022-12-16T03:08:39.840Z,99333.94
2022-12-16T03:11:08.269Z,99332.19
2022-12-16T03:13:35.850Z,99330.47
2022-12-16T03:16:03.779Z,99323.56
2022-12-16T03:18:31.290Z,99331.31
2022-12-16T03:20:58.873Z,99333.94
2022-12-16T03:23:26.939Z,99335.63
2022-12-16T03:25:54.558Z,99330.47
2022-12-16T03:28:22.503Z,99333.91
2022-12-16T03:30:50.165Z,99331.34
2022-12-16T03:33:21.834Z,99331.38
2022-12-16T03:35:49.409Z,99342.59
2022-12-16T03:38:17.001Z,99338.31
2022-12-16T03:40:45.017Z,99342.66
2022-12-16T03:43:12.567Z,99341.78
2022-12-16T03:45:41.900Z,99343.47
2022-12-16T03:48:09.591Z,99348.66
2022-12-16T03:50:37.203Z,99344.31
2022-12-16T03:53:05.721Z,99347.78
2022-12-16T03:55:33.852Z,99348.69
2022-12-16T03:58:03.942Z,99355.63
2022-12-16T04:00:31.573Z,99357.38
2022-12-16T04:02:59.395Z,99359.97
2022-12-16T04:05:27.605Z,99353.13
2022-12-16T04:08:00.232Z,99354.88
2022-12-16T04:10:43.367Z,99353.19
2022-12-16T04:13:28.645Z,99341.16
2022-12-16T04:16:14.121Z,99348.94
2022-12-16T04:18:59.457Z,99348.06
2022-12-16T04:21:44.301Z,99360.09
2022-12-16T04:24:20.979Z,99357.56
2022-12-16T04:27:10.496Z,99361.84
2022-12-16T04:30:06.616Z,99373.09
2022-12-16T04:32:54.460Z,99377.44
2022-12-16T04:35:39.371Z,99369.72
2022-12-16T04:38:26.129Z,99381.81
2022-12-16T04:41:11.245Z,99382.78
2022-12-16T04:43:56.401Z,99382.88
2022-12-16T04:46:41.438Z,99389.88
2022-12-16T04:49:27.167Z,99389.06
2022-12-16T04:52:12.309Z,99399.41
2022-12-16T04:54:57.335Z,99392.53
2022-12-16T04:57:42.415Z,99398.59
2022-12-16T05:00:29.375Z,99400.28
2022-12-16T05:03:14.560Z,99398.56
2022-12-16T05:05:59.657Z,99406.25
2022-12-16T05:08:44.626Z,99407.91
2022-12-16T05:11:30.383Z,99407.88
2022-12-16T05:14:15.493Z,99407.00
2022-12-16T05:17:00.397Z,99405.31
2022-12-16T05:19:45.534Z,99408.78
2022-12-16T05:22:32.307Z,99415.72
2022-12-16T05:25:17.264Z,99424.34
2022-12-16T05:28:02.275Z,99427.00
2022-12-16T05:30:47.210Z,99422.72
2022-12-16T05:33:33.563Z,99427.91
2022-12-16T05:36:18.952Z,99427.88
2022-12-16T05:39:03.975Z,99431.34
2022-12-16T05:41:48.996Z,99431.34
2022-12-16T05:44:34.512Z,99442.50
2022-12-16T05:47:19.976Z,99445.97
2022-12-16T05:50:05.145Z,99442.53
2022-12-16T05:52:50.287Z,99446.88
2022-12-16T05:55:35.775Z,99459.78
2022-12-16T05:58:29.416Z,99456.38
2022-12-16T06:01:14.347Z,99459.84
2022-12-16T06:04:02.708Z,99459.91
2022-12-16T06:07:03.379Z,99464.22
2022-12-16T06:09:53.186Z,99465.13
2022-12-16T06:12:41.238Z,99466.88
2022-12-16T06:15:25.568Z,99475.47
2022-12-16T06:18:10.918Z,99477.22
2022-12-16T06:20:55.989Z,99477.22
2022-12-16T06:23:40.961Z,99484.09
2022-12-16T06:26:26.162Z,99494.44
2022-12-16T06:29:13.122Z,99495.25
2022-12-16T06:31:58.392Z,99505.59
2022-12-16T06:34:43.305Z,99502.19
2022-12-16T06:37:28.359Z,99502.13
2022-12-16T06:40:14.350Z,99506.44
2022-12-16T06:42:59.599Z,99509.00
2022-12-16T06:45:45.226Z,99519.31
2022-12-16T06:48:30.642Z,99521.88
2022-12-16T06:51:17.612Z,99520.19
2022-12-16T06:54:08.448Z,99523.66
2022-12-16T06:56:53.434Z,99521.88
2022-12-16T06:59:38.709Z,99541.59
2022-12-16T07:02:23.623Z,99545.88
2022-12-16T07:05:08.990Z,99542.41
2022-12-16T07:07:54.001Z,99549.28
2022-12-16T07:10:39.045Z,99554.50
2022-12-16T07:13:24.415Z,99555.34
2022-12-16T07:16:09.771Z,99556.22
2022-12-16T07:18:54.604Z,99565.72
2022-12-16T07:21:40.119Z,99563.16
2022-12-16T07:24:25.777Z,99576.06
2022-12-16T07:27:11.222Z,99577.81
2022-12-16T07:29:56.258Z,99590.72
2022-12-16T07:32:41.274Z,99592.47
2022-12-16T07:35:23.521Z,99601.94
2022-12-16T07:38:08.417Z,99603.66
2022-12-16T07:40:53.485Z,99608.81
2022-12-16T07:43:38.417Z,99615.69
2022-12-16T07:46:23.800Z,99621.72
2022-12-16T07:49:05.316Z,99629.44
2022-12-16T07:51:50.270Z,99635.50
2022-12-16T07:54:36.086Z,99640.63
2022-12-16T07:57:22.435Z,99647.47
2022-12-16T08:00:07.724Z,99643.19
2022-12-16T08:02:56.287Z,99647.47
2022-12-16T08:05:41.406Z,99653.47
2022-12-16T08:08:27.223Z,99657.69
2022-12-16T08:11:12.238Z,99656.81
2022-12-16T08:13:57.194Z,99663.63
2022-12-16T08:16:42.555Z,99659.25
2022-12-16T08:19:28.168Z,99659.16
2022-12-16T08:22:13.237Z,99667.66
2022-12-16T08:24:58.312Z,99675.28
2022-12-16T08:27:42.812Z,99673.47
2022-12-16T08:30:28.590Z,99674.22
2022-12-16T08:33:19.185Z,99674.88
2022-12-16T08:36:04.795Z,99679.78
2022-12-16T08:38:49.829Z,99676.22
2022-12-16T08:41:36.057Z,99680.44
2022-12-16T08:44:21.232Z,99680.41
2022-12-16T08:47:06.664Z,99689.81
2022-12-16T08:49:53.636Z,99694.09
2022-12-16T08:52:42.351Z,99690.56
2022-12-16T08:55:29.860Z,99691.44
2022-12-16T08:58:14.988Z,99689.66
2022-12-16T09:01:06.219Z,99699.94
2022-12-16T09:03:53.208Z,99693.84
2022-12-16T09:06:40.627Z,99691.13
2022-12-16T09:09:26.451Z,99699.69
2022-12-16T09:12:11.748Z,99699.59
2022-12-16T09:14:56.723Z,99702.06
2022-12-16T09:17:42.069Z,99705.38
2022-12-16T09:20:27.190Z,99708.66
2022-12-16T09:23:12.366Z,99706.72
2022-12-16T09:25:59.017Z,99714.16
2022-12-16T09:28:44.111Z,99709.41
2022-12-16T09:31:29.368Z,99711.72
2022-12-16T09:34:14.605Z,99718.34
2022-12-16T09:36:59.658Z,99718.09
2022-12-16T09:39:44.710Z,99717.03
2022-12-16T09:42:29.820Z,99722.88
2022-12-16T09:45:14.789Z,99728.66
2022-12-16T09:48:00.498Z,99730.94
2022-12-16T09:50:45.609Z,99734.69
2022-12-16T09:53:31.119Z,99734.06
2022-12-16T09:56:16.801Z,99726.34
2022-12-16T09:59:02.352Z,99733.25
2022-12-16T10:01:47.716Z,99735.44
2022-12-16T10:04:33.165Z,99731.78
2022-12-16T10:07:18.505Z,99729.03
2022-12-16T10:10:03.554Z,99722.81
2022-12-16T10:12:48.698Z,99726.16
2022-12-16T10:15:33.807Z,99722.00
2022-12-16T10:18:18.914Z,99715.84
2022-12-16T10:21:15.724Z,99716.34
2022-12-16T10:24:00.940Z,99711.81
2022-12-16T10:26:46.094Z,99713.16
2022-12-16T10:29:31.488Z,99720.28
2022-12-16T10:32:16.548Z,99722.78
2022-12-16T10:35:01.983Z,99722.13
2022-12-16T10:37:47.105Z,99720.06
2022-12-16T10:40:32.318Z,99718.44
2022-12-16T10:43:22.196Z,99724.56
2022-12-16T10:46:07.915Z,99723.25
2022-12-16T10:48:56.473Z,99726.63
2022-12-16T10:51:42.446Z,99720.03
2022-12-16T10:54:27.727Z,99719.91
2022-12-16T10:57:13.138Z,99717.59
2022-12-16T10:59:58.160Z,99725.53
2022-12-16T11:02:43.456Z,99720.03
2022-12-16T11:05:29.484Z,99719.59
2022-12-16T11:08:14.656Z,99723.00
2022-12-16T11:10:59.769Z,99719.47
2022-12-16T11:13:45.282Z,99725.31
2022-12-16T11:16:30.973Z,99714.50
2022-12-16T11:19:16.506Z,99712.81
2022-12-16T11:22:00.704Z,99723.69
2022-12-16T11:24:45.845Z,99722.91
2022-12-16T11:27:31.135Z,99722.47
2022-12-16T11:30:16.447Z,99714.59
2022-12-16T11:33:06.923Z,99717.13
2022-12-16T11:35:52.304Z,99718.94
2022-12-16T11:38:37.647Z,99728.63
2022-12-16T11:41:22.966Z,99723.38
2022-12-16T11:44:07.836Z,99722.19
2022-12-16T11:47:04.671Z,99726.59
2022-12-16T11:49:50.118Z,99722.09
2022-12-16T11:52:37.683Z,99722.63
2022-12-16T11:55:35.962Z,99713.97
2022-12-16T11:58:28.449Z,99714.81
2022-12-16T12:01:14.184Z,99707.50
2022-12-16T12:03:59.238Z,99723.75
2022-12-16T12:06:44.821Z,99717.75
2022-12-16T12:09:29.985Z,99722.94
2022-12-16T12:12:15.088Z,99718.59
2022-12-16T12:15:00.310Z,99723.00
2022-12-16T12:17:45.249Z,99725.66
2022-12-16T12:20:30.472Z,99724.00
2022-12-16T12:23:15.850Z,99724.53
2022-12-16T12:26:01.329Z,99722.97
2022-12-16T12:28:46.302Z,99732.25
2022-12-16T12:31:31.688Z,99726.59
2022-12-16T12:34:16.969Z,99735.81
2022-12-16T12:37:02.541Z,99744.19
2022-12-16T12:39:47.578Z,99740.53
2022-12-16T12:42:32.864Z,99748.31
2022-12-16T12:45:18.122Z,99753.44
2022-12-16T12:48:03.341Z,99747.03
2022-12-16T12:50:48.482Z,99752.91
2022-12-16T12:53:34.454Z,99755.44
2022-12-16T12:56:20.105Z,99752.41
2022-12-16T12:59:05.832Z,99752.91
2022-12-16T13:02:05.723Z,99752.59
2022-12-16T13:04:51.115Z,99746.97
2022-12-16T13:07:37.012Z,99746.06
2022-12-16T13:10:22.227Z,99749.16
2022-12-16T13:13:07.451Z,99747.97
2022-12-16T13:15:52.657Z,99750.09
2022-12-16T13:18:38.151Z,99750.19
2022-12-16T13:21:23.497Z,99752.78
2022-12-16T13:24:08.643Z,99759.03
2022-12-16T13:26:53.834Z,99758.44
2022-12-16T13:29:39.247Z,99753.47
2022-12-16T13:32:24.743Z,99761.78
2022-12-16T13:35:09.869Z,99757.94
2022-12-16T13:37:55.216Z,99767.53
2022-12-16T13:40:40.929Z,99760.16
2022-12-16T13:43:38.616Z,99767.28
2022-12-16T13:46:23.648Z,99774.38
2022-12-16T13:49:23.358Z,99779.84
2022-12-16T13:52:09.254Z,99791.25
2022-12-16T13:54:54.566Z,99795.03
2022-12-16T13:57:39.710Z,99790.44
2022-12-16T14:00:24.797Z,99804.28
2022-12-16T14:03:10.357Z,99800.41
2022-12-16T14:06:04.837Z,99809.28
2022-12-16T14:08:50.656Z,99802.69
2022-12-16T14:11:36.657Z,99811.50
2022-12-16T14:14:22.804Z,99816.94
2022-12-16T14:17:08.044Z,99836.44
2022-12-16T14:19:53.069Z,99840.78
2022-12-16T14:22:38.188Z,99843.31
2022-12-16T14:25:27.871Z,99843.25
2022-12-16T14:28:13.984Z,99843.38
2022-12-16T14:31:13.824Z,99843.56
2022-12-16T14:33:58.869Z,99855.16
2022-12-16T14:36:44.726Z,99859.63
2022-12-16T14:39:30.030Z,99857.78
2022-12-16T14:42:15.087Z,99864.56
2022-12-16T14:45:00.259Z,99871.28
2022-12-16T14:47:45.652Z,99868.44
2022-12-16T14:50:31.015Z,99872.47
2022-12-16T14:53:16.222Z,99879.06
2022-12-16T14:56:01.253Z,99882.16
2022-12-16T14:58:46.679Z,99884.34
2022-12-16T15:01:32.268Z,99887.31
2022-12-16T15:04:18.125Z,99895.50
2022-12-16T15:07:03.308Z,99896.72
2022-12-16T15:09:49.187Z,99908.41
2022-12-16T15:12:34.745Z,99905.22
2022-12-16T15:15:19.739Z,99913.34
2022-12-16T15:18:04.879Z,99914.53
2022-12-16T15:20:49.874Z,99924.41
2022-12-16T15:23:35.395Z,99923.88
2022-12-16T15:26:20.519Z,99929.41
2022-12-16T15:29:05.851Z,99930.59
2022-12-16T15:31:51.170Z,99937.03
2022-12-16T15:34:36.940Z,99943.47
2022-12-16T15:37:21.868Z,99953.34
2022-12-16T15:40:06.937Z,99953.63
2022-12-16T15:42:52.304Z,99964.25
2022-12-16T15:45:37.559Z,99965.25
2022-12-16T15:48:22.545Z,99969.00
2022-12-16T15:51:07.653Z,99975.22
2022-12-16T15:53:52.867Z,99975.44
2022-12-16T15:56:38.384Z,99977.28
2022-12-16T15:59:23.318Z,99989.59
2022-12-16T16:02:08.693Z,99985.31
2022-12-16T16:04:54.461Z,99997.63
2022-12-16T16:07:40.097Z,99998.66
2022-12-16T16:10:25.497Z,99995.28
2022-12-16T16:13:10.565Z,99999.75
2022-12-16T16:15:55.954Z,100004.25
2022-12-16T16:18:41.415Z,100008.72
2022-12-16T16:21:26.566Z,100015.81
2022-12-16T16:24:11.875Z,100022.09
2022-12-16T16:27:12.174Z,100022.28
2022-12-16T16:29:57.587Z,100021.56
2022-12-16T16:32:42.865Z,100025.22
2022-12-16T16:35:28.170Z,100023.66
2022-12-16T16:38:18.202Z,100022.09
2022-12-16T16:41:15.993Z,100030.06
2022-12-16T16:44:01.352Z,100030.22
2022-12-16T16:46:46.568Z,100028.59
2022-12-16T16:49:32.444Z,100039.94
2022-12-16T16:52:17.942Z,100042.56
2022-12-16T16:55:03.189Z,100052.19
2022-12-16T16:57:48.568Z,100057.47
2022-12-16T17:00:33.958Z,100053.22
2022-12-16T17:03:20.138Z,100059.41
2022-12-16T17:06:05.319Z,100065.56
2022-12-16T17:08:50.582Z,100071.72
2022-12-16T17:11:35.935Z,100077.84
2022-12-16T17:14:21.020Z,100083.13
2022-12-16T17:17:06.043Z,100083.16
2022-12-16T17:19:51.071Z,100089.31
2022-12-16T17:22:36.535Z,100091.16
2022-12-16T17:25:22.142Z,100100.81
2022-12-16T17:28:07.220Z,100094.88
2022-12-16T17:30:52.698Z,100103.63
2022-12-16T17:33:38.411Z,100107.19
2022-12-16T17:36:28.524Z,100102.91
2022-12-16T17:39:16.780Z,100116.81
2022-12-16T17:42:01.834Z,100122.94
2022-12-16T17:44:47.138Z,100127.34
2022-12-16T17:47:32.509Z,100138.69
2022-12-16T17:50:17.518Z,100133.59
2022-12-16T17:53:02.828Z,100146.69
2022-12-16T17:55:48.181Z,100154.53
2022-12-16T17:58:33.678Z,100152.00
2022-12-16T18:01:18.997Z,100153.00
2022-12-16T18:04:04.660Z,100150.50
2022-12-16T18:06:51.829Z,100158.38
2022-12-16T18:09:51.650Z,100162.78
2022-12-16T18:12:36.540Z,100166.31
2022-12-16T18:15:21.956Z,100164.63
2022-12-16T18:18:07.853Z,100162.09
2022-12-16T18:20:53.302Z,100172.59
2022-12-16T18:23:46.886Z,100177.91
2022-12-16T18:26:34.524Z,100180.66
2022-12-16T18:29:19.419Z,100182.47
2022-12-16T18:32:04.784Z,100187.72
2022-12-16T18:34:49.725Z,100186.84
2022-12-16T18:37:34.982Z,100190.31
2022-12-16T18:40:20.703Z,100192.94
2022-12-16T18:43:05.920Z,100192.94
2022-12-16T18:45:50.354Z,100200.75
2022-12-16T18:48:35.534Z,100195.56
2022-12-16T18:51:21.030Z,100192.06
2022-12-16T18:54:06.336Z,100205.03
2022-12-16T18:56:51.457Z,100201.56
2022-12-16T18:59:36.542Z,100214.63
2022-12-16T19:02:24.314Z,100220.00
2022-12-16T19:05:09.648Z,100220.97
2022-12-16T19:08:00.400Z,100221.94
2022-12-16T19:10:45.484Z,100239.34
2022-12-16T19:13:30.994Z,100231.63
2022-12-16T19:16:16.347Z,100248.09
2022-12-16T19:19:01.400Z,100237.75
2022-12-16T19:21:52.149Z,100241.22
2022-12-16T19:24:42.203Z,100239.53
2022-12-16T19:27:27.703Z,100249.09
2022-12-16T19:30:13.066Z,100247.41
2022-12-16T19:32:58.546Z,100246.59
2022-12-16T19:35:44.399Z,100253.56
2022-12-16T19:38:29.749Z,100253.63
2022-12-16T19:41:14.765Z,100254.53
2022-12-16T19:44:05.402Z,100258.06
2022-12-16T19:46:56.702Z,100260.72
2022-12-16T19:49:44.510Z,100263.34
2022-12-16T19:52:29.749Z,100269.47
2022-12-16T19:55:17.524Z,100269.50
2022-12-16T19:58:03.322Z,100272.97
2022-12-16T20:00:48.518Z,100272.97
2022-12-16T20:03:34.263Z,100279.03
2022-12-16T20:06:19.763Z,100284.25
2022-12-16T20:09:05.274Z,100285.19
2022-12-16T20:11:50.807Z,100281.72
2022-12-16T20:14:36.820Z,100285.19
2022-12-16T20:17:22.021Z,100282.59
2022-12-16T20:20:07.401Z,100278.28
2022-12-16T20:22:52.748Z,100290.38
2022-12-16T20:25:41.265Z,100286.06
2022-12-16T20:28:26.423Z,100286.88
2022-12-16T20:31:14.015Z,100292.91
2022-12-16T20:34:02.961Z,100293.75
2022-12-16T20:36:48.278Z,100292.91
2022-12-16T20:39:33.516Z,100295.63
2022-12-16T20:42:18.954Z,100291.44
2022-12-16T20:45:04.357Z,100295.03
2022-12-16T20:47:49.598Z,100301.16
2022-12-16T20:50:34.544Z,100311.63
2022-12-16T20:53:21.630Z,100316.88
2022-12-16T20:56:06.805Z,100315.16
2022-12-16T20:58:57.268Z,100317.78
2022-12-16T21:01:47.938Z,100324.75
2022-12-16T21:04:41.906Z,100331.72
2022-12-16T21:07:27.225Z,100326.56
2022-12-16T21:10:12.324Z,100326.59
2022-12-16T21:13:00.705Z,100323.16
2022-12-16T21:15:52.496Z,100336.13
2022-12-16T21:18:41.265Z,100336.19
2022-12-16T21:21:26.501Z,100338.78
2022-12-16T21:24:11.877Z,100337.97
2022-12-16T21:26:57.950Z,100342.31
2022-12-16T21:29:42.994Z,100343.19
2022-12-16T21:32:27.966Z,100360.47
2022-12-16T21:35:13.352Z,100357.94
2022-12-16T21:38:00.103Z,100368.28
2022-12-16T21:40:45.246Z,100376.06
2022-12-16T21:43:35.741Z,100377.81
2022-12-16T21:46:20.971Z,100383.88
2022-12-16T21:49:07.152Z,100384.75
2022-12-16T21:51:52.607Z,100390.81
2022-12-16T21:54:41.849Z,100391.66
2022-12-16T21:57:26.901Z,100399.41
2022-12-16T22:00:13.836Z,100401.97
2022-12-16T22:02:59.413Z,100407.13
2022-12-16T22:05:44.621Z,100404.53
2022-12-16T22:08:32.175Z,100405.44
2022-12-16T22:11:18.204Z,100402.84
2022-12-16T22:14:03.522Z,100400.25
2022-12-16T22:16:48.461Z,100402.88
2022-12-16T22:19:33.663Z,100403.78
2022-12-16T22:22:20.749Z,100415.91
2022-12-16T22:25:12.563Z,100414.16
2022-12-16T22:27:59.662Z,100421.09
2022-12-16T22:30:44.907Z,100428.81
2022-12-16T22:33:30.215Z,100434.00
2022-12-16T22:36:15.220Z,100441.78
2022-12-16T22:39:00.046Z,100440.03
2022-12-16T22:41:45.106Z,100437.44
2022-12-16T22:44:32.661Z,100434.84
2022-12-16T22:47:17.948Z,100446.06
2022-12-16T22:50:03.092Z,100449.56
2022-12-16T22:52:48.154Z,100452.13
2022-12-16T22:55:34.380Z,100464.22
2022-12-16T22:58:19.468Z,100459.06
2022-12-16T23:01:04.465Z,100457.34
2022-12-16T23:03:49.591Z,100457.38
2022-12-16T23:06:36.659Z,100466.03
2022-12-16T23:09:21.754Z,100466.00
2022-12-16T23:12:06.863Z,100472.94
2022-12-16T23:14:52.016Z,100472.06
2022-12-16T23:17:38.015Z,100475.53
2022-12-16T23:20:23.483Z,100467.81
2022-12-16T23:23:08.435Z,100483.34
2022-12-16T23:25:53.898Z,100485.97
2022-12-16T23:28:48.375Z,100480.81
2022-12-16T23:31:33.467Z,100480.81
2022-12-16T23:34:18.445Z,100478.22
2022-12-16T23:37:03.397Z,100482.53
2022-12-16T23:39:48.927Z,100479.09
2022-12-16T23:42:34.245Z,100487.72
2022-12-16T23:45:19.228Z,100488.59
2022-12-16T23:48:04.220Z,100489.50
2022-12-16T23:50:49.345Z,100490.34
2022-12-16T23:53:34.568Z,100483.44
2022-12-16T23:56:19.764Z,100482.56
2022-12-16T23:59:04.892Z,100493.78
